sensor_id;sensor_type;location;lat;lon;timestamp;temperature;humidity
11536;DHT22;5824;49.336;8.652;2022-09-03T00:02:42;20.90;1.00
11536;DHT22;5824;49.336;8.652;2022-09-03T00:07:59;20.90;1.00
11536;DHT22;5824;49.336;8.652;2022-09-03T00:11:20;20.90;1.00
11536;DHT22;5824;49.336;8.652;2022-09-03T00:13:26;20.80;1.00
11536;DHT22;5824;49.336;8.652;2022-09-03T00:15:54;20.80;1.00
11536;DHT22;5824;49.336;8.652;2022-09-03T00:18:24;20.80;1.00
11536;DHT22;5824;49.336;8.652;2022-09-03T00:21:13;20.80;1.00
11536;DHT22;5824;49.336;8.652;2022-09-03T00:23:41;20.80;1.00
11536;DHT22;5824;49.336;8.652;2022-09-03T00:28:43;20.70;1.00
11536;DHT22;5824;49.336;8.652;2022-09-03T00:31:21;20.70;1.00
11536;DHT22;5824;49.336;8.652;2022-09-03T00:33:54;20.70;1.00
11536;DHT22;5824;49.336;8.652;2022-09-03T00:36:30;20.70;1.00
11536;DHT22;5824;49.336;8.652;2022-09-03T00:38:57;20.70;1.00
11536;DHT22;5824;49.336;8.652;2022-09-03T00:41:38;20.70;1.00
11536;DHT22;5824;49.336;8.652;2022-09-03T00:44:27;20.70;1.00
11536;DHT22;5824;49.336;8.652;2022-09-03T01:00:13;20.60;1.00
11536;DHT22;5824;49.336;8.652;2022-09-03T01:10:55;20.50;1.00
11536;DHT22;5824;49.336;8.652;2022-09-03T01:13:37;20.50;1.00
11536;DHT22;5824;49.336;8.652;2022-09-03T01:16:27;20.50;1.00
11536;DHT22;5824;49.336;8.652;2022-09-03T01:19:12;20.50;1.00
11536;DHT22;5824;49.336;8.652;2022-09-03T01:22:12;20.50;1.00
11536;DHT22;5824;49.336;8.652;2022-09-03T01:25:05;20.50;1.00
11536;DHT22;5824;49.336;8.652;2022-09-03T01:30:37;20.50;1.00
11536;DHT22;5824;49.336;8.652;2022-09-03T01:33:27;20.40;1.00
11536;DHT22;5824;49.336;8.652;2022-09-03T01:36:08;20.50;1.00
11536;DHT22;5824;49.336;8.652;2022-09-03T01:38:55;20.50;1.00
11536;DHT22;5824;49.336;8.652;2022-09-03T01:41:45;20.50;1.00
11536;DHT22;5824;49.336;8.652;2022-09-03T01:44:41;20.40;1.00
11536;DHT22;5824;49.336;8.652;2022-09-03T01:47:27;20.40;1.00
11536;DHT22;5824;49.336;8.652;2022-09-03T01:50:15;20.50;1.00
11536;DHT22;5824;49.336;8.652;2022-09-03T01:52:57;20.40;1.00
11536;DHT22;5824;49.336;8.652;2022-09-03T01:55:52;20.40;1.00
11536;DHT22;5824;49.336;8.652;2022-09-03T01:58:40;20.30;1.00
11536;DHT22;5824;49.336;8.652;2022-09-03T02:01:28;20.30;1.00
11536;DHT22;5824;49.336;8.652;2022-09-03T02:03:56;20.30;1.00
11536;DHT22;5824;49.336;8.652;2022-09-03T02:06:25;20.30;1.00
11536;DHT22;5824;49.336;8.652;2022-09-03T02:08:52;20.30;1.00
11536;DHT22;5824;49.336;8.652;2022-09-03T02:11:17;20.20;1.00
11536;DHT22;5824;49.336;8.652;2022-09-03T02:13:47;20.20;1.00
11536;DHT22;5824;49.336;8.652;2022-09-03T02:16:21;20.20;1.00
11536;DHT22;5824;49.336;8.652;2022-09-03T02:18:55;20.20;1.00
11536;DHT22;5824;49.336;8.652;2022-09-03T02:21:23;20.20;1.00
11536;DHT22;5824;49.336;8.652;2022-09-03T02:23:49;20.20;1.00
11536;DHT22;5824;49.336;8.652;2022-09-03T02:26:18;20.10;1.00
11536;DHT22;5824;49.336;8.652;2022-09-03T02:28:45;20.10;1.00
11536;DHT22;5824;49.336;8.652;2022-09-03T02:31:11;20.10;1.00
11536;DHT22;5824;49.336;8.652;2022-09-03T02:33:39;20.10;1.00
11536;DHT22;5824;49.336;8.652;2022-09-03T02:36:08;20.10;1.00
11536;DHT22;5824;49.336;8.652;2022-09-03T02:38:34;20.00;1.00
11536;DHT22;5824;49.336;8.652;2022-09-03T02:40:59;20.00;1.00
11536;DHT22;5824;49.336;8.652;2022-09-03T02:46:04;19.90;1.00
11536;DHT22;5824;49.336;8.652;2022-09-03T02:48:31;19.90;1.00
11536;DHT22;5824;49.336;8.652;2022-09-03T02:50:57;19.90;1.00
11536;DHT22;5824;49.336;8.652;2022-09-03T02:53:23;19.80;1.00
11536;DHT22;5824;49.336;8.652;2022-09-03T02:55:49;19.80;1.00
11536;DHT22;5824;49.336;8.652;2022-09-03T02:58:15;19.80;1.00
11536;DHT22;5824;49.336;8.652;2022-09-03T03:00:40;19.70;1.00
11536;DHT22;5824;49.336;8.652;2022-09-03T03:03:06;19.70;1.00
11536;DHT22;5824;49.336;8.652;2022-09-03T03:05:52;19.70;1.00
11536;DHT22;5824;49.336;8.652;2022-09-03T03:08:20;19.70;1.00
11536;DHT22;5824;49.336;8.652;2022-09-03T03:10:48;19.70;1.00
11536;DHT22;5824;49.336;8.652;2022-09-03T03:13:14;19.70;1.00
11536;DHT22;5824;49.336;8.652;2022-09-03T03:15:40;19.80;1.00
11536;DHT22;5824;49.336;8.652;2022-09-03T03:18:06;19.70;1.00
11536;DHT22;5824;49.336;8.652;2022-09-03T03:20:32;19.70;1.00
11536;DHT22;5824;49.336;8.652;2022-09-03T03:23:01;19.70;1.00
11536;DHT22;5824;49.336;8.652;2022-09-03T03:25:26;19.70;1.00
11536;DHT22;5824;49.336;8.652;2022-09-03T03:27:54;19.60;1.00
11536;DHT22;5824;49.336;8.652;2022-09-03T03:30:21;19.70;1.00
11536;DHT22;5824;49.336;8.652;2022-09-03T03:32:47;19.60;1.00
11536;DHT22;5824;49.336;8.652;2022-09-03T03:35:13;19.60;1.00
11536;DHT22;5824;49.336;8.652;2022-09-03T03:37:39;19.60;1.00
11536;DHT22;5824;49.336;8.652;2022-09-03T03:40:04;19.60;1.00
11536;DHT22;5824;49.336;8.652;2022-09-03T03:42:32;19.70;1.00
11536;DHT22;5824;49.336;8.652;2022-09-03T03:44:58;19.60;1.00
11536;DHT22;5824;49.336;8.652;2022-09-03T03:47:24;19.70;1.00
11536;DHT22;5824;49.336;8.652;2022-09-03T03:49:49;19.70;1.00
11536;DHT22;5824;49.336;8.652;2022-09-03T03:52:15;19.70;1.00
11536;DHT22;5824;49.336;8.652;2022-09-03T03:54:40;19.70;1.00
11536;DHT22;5824;49.336;8.652;2022-09-03T03:57:06;19.70;1.00
11536;DHT22;5824;49.336;8.652;2022-09-03T03:59:31;19.70;1.00
11536;DHT22;5824;49.336;8.652;2022-09-03T04:01:57;19.70;1.00
11536;DHT22;5824;49.336;8.652;2022-09-03T04:04:22;19.70;1.00
11536;DHT22;5824;49.336;8.652;2022-09-03T04:06:48;19.90;1.00
11536;DHT22;5824;49.336;8.652;2022-09-03T04:09:13;19.70;1.00
11536;DHT22;5824;49.336;8.652;2022-09-03T04:11:39;19.70;1.00
11536;DHT22;5824;49.336;8.652;2022-09-03T04:14:04;19.70;1.00
11536;DHT22;5824;49.336;8.652;2022-09-03T04:16:30;19.60;1.00
11536;DHT22;5824;49.336;8.652;2022-09-03T04:18:57;19.60;1.00
11536;DHT22;5824;49.336;8.652;2022-09-03T04:21:25;19.60;1.00
11536;DHT22;5824;49.336;8.652;2022-09-03T04:23:52;19.50;1.00
11536;DHT22;5824;49.336;8.652;2022-09-03T04:26:26;19.60;1.00
11536;DHT22;5824;49.336;8.652;2022-09-03T04:28:55;19.40;1.00
11536;DHT22;5824;49.336;8.652;2022-09-03T04:31:21;19.40;1.00
11536;DHT22;5824;49.336;8.652;2022-09-03T04:33:46;19.40;1.00
11536;DHT22;5824;49.336;8.652;2022-09-03T04:38:40;19.10;1.00
11536;DHT22;5824;49.336;8.652;2022-09-03T04:41:08;18.90;1.00
11536;DHT22;5824;49.336;8.652;2022-09-03T04:43:34;18.70;1.00
11536;DHT22;5824;49.336;8.652;2022-09-03T04:46:02;18.50;1.00
11536;DHT22;5824;49.336;8.652;2022-09-03T04:48:29;18.30;1.00
11536;DHT22;5824;49.336;8.652;2022-09-03T04:51:00;17.80;1.00
11536;DHT22;5824;49.336;8.652;2022-09-03T04:53:29;17.50;1.00
11536;DHT22;5824;49.336;8.652;2022-09-03T04:55:55;17.30;1.00
11536;DHT22;5824;49.336;8.652;2022-09-03T04:58:20;17.00;1.00
11536;DHT22;5824;49.336;8.652;2022-09-03T05:00:46;17.10;1.00
11536;DHT22;5824;49.336;8.652;2022-09-03T05:03:11;17.10;1.00
11536;DHT22;5824;49.336;8.652;2022-09-03T05:05:37;17.20;1.00
11536;DHT22;5824;49.336;8.652;2022-09-03T05:08:03;17.30;1.00
11536;DHT22;5824;49.336;8.652;2022-09-03T05:10:29;17.50;1.00
11536;DHT22;5824;49.336;8.652;2022-09-03T05:13:03;17.60;1.00
11536;DHT22;5824;49.336;8.652;2022-09-03T05:15:30;17.60;1.00
11536;DHT22;5824;49.336;8.652;2022-09-03T05:17:57;17.60;1.00
11536;DHT22;5824;49.336;8.652;2022-09-03T05:20:24;17.70;1.00
11536;DHT22;5824;49.336;8.652;2022-09-03T05:22:50;17.70;1.00
11536;DHT22;5824;49.336;8.652;2022-09-03T05:25:16;17.80;1.00
11536;DHT22;5824;49.336;8.652;2022-09-03T05:27:41;17.80;1.00
11536;DHT22;5824;49.336;8.652;2022-09-03T05:30:07;18.00;1.00
11536;DHT22;5824;49.336;8.652;2022-09-03T05:32:33;18.00;1.00
11536;DHT22;5824;49.336;8.652;2022-09-03T05:34:59;18.10;1.00
11536;DHT22;5824;49.336;8.652;2022-09-03T05:37:24;18.20;1.00
11536;DHT22;5824;49.336;8.652;2022-09-03T05:39:50;18.10;1.00
11536;DHT22;5824;49.336;8.652;2022-09-03T05:42:16;18.20;1.00
11536;DHT22;5824;49.336;8.652;2022-09-03T05:44:42;18.30;1.00
11536;DHT22;5824;49.336;8.652;2022-09-03T05:47:08;18.20;1.00
11536;DHT22;5824;49.336;8.652;2022-09-03T05:49:33;18.30;1.00
11536;DHT22;5824;49.336;8.652;2022-09-03T05:51:59;18.40;1.00
11536;DHT22;5824;49.336;8.652;2022-09-03T05:54:24;18.50;1.00
11536;DHT22;5824;49.336;8.652;2022-09-03T05:56:50;18.60;1.00
11536;DHT22;5824;49.336;8.652;2022-09-03T05:59:16;18.60;1.00
11536;DHT22;5824;49.336;8.652;2022-09-03T06:01:43;18.80;1.00
11536;DHT22;5824;49.336;8.652;2022-09-03T06:04:12;18.90;1.00
11536;DHT22;5824;49.336;8.652;2022-09-03T06:06:40;18.90;1.00
11536;DHT22;5824;49.336;8.652;2022-09-03T06:09:08;19.00;1.00
11536;DHT22;5824;49.336;8.652;2022-09-03T06:11:36;19.00;1.00
11536;DHT22;5824;49.336;8.652;2022-09-03T06:14:04;19.00;1.00
11536;DHT22;5824;49.336;8.652;2022-09-03T06:16:31;19.00;1.00
11536;DHT22;5824;49.336;8.652;2022-09-03T06:18:56;19.10;1.00
11536;DHT22;5824;49.336;8.652;2022-09-03T06:21:23;19.10;1.00
11536;DHT22;5824;49.336;8.652;2022-09-03T06:23:53;19.10;1.00
11536;DHT22;5824;49.336;8.652;2022-09-03T06:26:22;18.90;1.00
11536;DHT22;5824;49.336;8.652;2022-09-03T06:28:48;18.70;1.00
11536;DHT22;5824;49.336;8.652;2022-09-03T06:31:16;18.50;1.00
11536;DHT22;5824;49.336;8.652;2022-09-03T06:33:43;18.10;1.00
11536;DHT22;5824;49.336;8.652;2022-09-03T06:36:11;17.80;1.00
11536;DHT22;5824;49.336;8.652;2022-09-03T06:38:38;17.80;1.00
11536;DHT22;5824;49.336;8.652;2022-09-03T06:41:07;17.00;1.00
11536;DHT22;5824;49.336;8.652;2022-09-03T06:43:35;16.80;1.00
11536;DHT22;5824;49.336;8.652;2022-09-03T06:46:10;16.80;1.00
11536;DHT22;5824;49.336;8.652;2022-09-03T06:48:36;16.70;1.00
11536;DHT22;5824;49.336;8.652;2022-09-03T06:51:05;16.60;1.00
11536;DHT22;5824;49.336;8.652;2022-09-03T06:53:33;16.50;1.00
11536;DHT22;5824;49.336;8.652;2022-09-03T06:56:02;16.40;1.00
11536;DHT22;5824;49.336;8.652;2022-09-03T06:58:29;16.30;1.00
11536;DHT22;5824;49.336;8.652;2022-09-03T07:01:17;16.30;1.00
11536;DHT22;5824;49.336;8.652;2022-09-03T07:03:44;16.30;1.00
11536;DHT22;5824;49.336;8.652;2022-09-03T07:06:15;16.30;1.00
11536;DHT22;5824;49.336;8.652;2022-09-03T07:08:41;16.30;1.00
11536;DHT22;5824;49.336;8.652;2022-09-03T07:11:09;16.30;1.00
11536;DHT22;5824;49.336;8.652;2022-09-03T07:13:37;16.30;4.00
11536;DHT22;5824;49.336;8.652;2022-09-03T07:16:09;16.30;2.30
11536;DHT22;5824;49.336;8.652;2022-09-03T07:18:35;16.30;4.10
11536;DHT22;5824;49.336;8.652;2022-09-03T07:21:05;16.20;3.60
11536;DHT22;5824;49.336;8.652;2022-09-03T07:23:31;16.30;4.70
11536;DHT22;5824;49.336;8.652;2022-09-03T07:25:59;16.40;7.20
11536;DHT22;5824;49.336;8.652;2022-09-03T07:28:26;16.40;2.40
11536;DHT22;5824;49.336;8.652;2022-09-03T07:30:52;16.40;2.80
11536;DHT22;5824;49.336;8.652;2022-09-03T07:33:18;16.50;9.70
11536;DHT22;5824;49.336;8.652;2022-09-03T07:35:45;16.70;13.20
11536;DHT22;5824;49.336;8.652;2022-09-03T07:38:10;16.90;5.20
11536;DHT22;5824;49.336;8.652;2022-09-03T07:40:36;17.10;5.70
11536;DHT22;5824;49.336;8.652;2022-09-03T07:43:04;17.20;10.80
11536;DHT22;5824;49.336;8.652;2022-09-03T07:45:30;17.20;17.30
11536;DHT22;5824;49.336;8.652;2022-09-03T07:47:57;17.30;9.00
11536;DHT22;5824;49.336;8.652;2022-09-03T07:50:23;17.20;15.10
11536;DHT22;5824;49.336;8.652;2022-09-03T07:52:48;17.10;9.20
11536;DHT22;5824;49.336;8.652;2022-09-03T07:55:14;17.00;14.30
11536;DHT22;5824;49.336;8.652;2022-09-03T07:57:39;16.90;20.30
11536;DHT22;5824;49.336;8.652;2022-09-03T08:00:06;16.90;17.60
11536;DHT22;5824;49.336;8.652;2022-09-03T08:02:37;16.70;18.20
11536;DHT22;5824;49.336;8.652;2022-09-03T08:05:02;16.60;25.40
11536;DHT22;5824;49.336;8.652;2022-09-03T08:07:29;16.50;25.60
11536;DHT22;5824;49.336;8.652;2022-09-03T08:09:55;16.40;26.20
11536;DHT22;5824;49.336;8.652;2022-09-03T08:12:20;16.50;30.30
11536;DHT22;5824;49.336;8.652;2022-09-03T08:14:46;16.40;18.90
11536;DHT22;5824;49.336;8.652;2022-09-03T08:17:12;16.40;27.10
11536;DHT22;5824;49.336;8.652;2022-09-03T08:19:38;16.40;29.30
11536;DHT22;5824;49.336;8.652;2022-09-03T08:22:05;16.40;25.40
11536;DHT22;5824;49.336;8.652;2022-09-03T08:24:30;16.30;27.90
11536;DHT22;5824;49.336;8.652;2022-09-03T08:26:58;16.30;28.70
11536;DHT22;5824;49.336;8.652;2022-09-03T08:29:24;16.20;29.90
11536;DHT22;5824;49.336;8.652;2022-09-03T08:31:51;16.10;29.20
11536;DHT22;5824;49.336;8.652;2022-09-03T08:34:17;16.10;43.00
11536;DHT22;5824;49.336;8.652;2022-09-03T08:36:42;16.20;43.20
11536;DHT22;5824;49.336;8.652;2022-09-03T08:39:09;16.20;43.10
11536;DHT22;5824;49.336;8.652;2022-09-03T08:44:30;16.00;43.00
11536;DHT22;5824;49.336;8.652;2022-09-03T08:47:04;16.00;43.00
11536;DHT22;5824;49.336;8.652;2022-09-03T08:49:47;16.00;43.00
11536;DHT22;5824;49.336;8.652;2022-09-03T08:55:17;15.90;43.00
11536;DHT22;5824;49.336;8.652;2022-09-03T08:58:11;15.80;42.80
11536;DHT22;5824;49.336;8.652;2022-09-03T09:00:59;15.20;42.30
11536;DHT22;5824;49.336;8.652;2022-09-03T09:03:37;15.90;43.00
11536;DHT22;5824;49.336;8.652;2022-09-03T09:11:31;16.00;43.00
11536;DHT22;5824;49.336;8.652;2022-09-03T09:14:22;16.10;43.20
11536;DHT22;5824;49.336;8.652;2022-09-03T09:16:53;16.20;43.20
11536;DHT22;5824;49.336;8.652;2022-09-03T09:19:30;16.40;43.30
11536;DHT22;5824;49.336;8.652;2022-09-03T09:22:09;16.70;43.60
11536;DHT22;5824;49.336;8.652;2022-09-03T09:24:41;17.10;44.10
11536;DHT22;5824;49.336;8.652;2022-09-03T09:27:08;17.50;44.40
11536;DHT22;5824;49.336;8.652;2022-09-03T09:29:38;17.90;44.50
11536;DHT22;5824;49.336;8.652;2022-09-03T09:32:07;18.10;23.50
11536;DHT22;5824;49.336;8.652;2022-09-03T09:34:34;18.20;20.40
11536;DHT22;5824;49.336;8.652;2022-09-03T09:37:03;18.20;24.70
11536;DHT22;5824;49.336;8.652;2022-09-03T09:39:30;18.20;17.80
11536;DHT22;5824;49.336;8.652;2022-09-03T09:42:00;18.20;13.90
11536;DHT22;5824;49.336;8.652;2022-09-03T09:44:30;18.10;11.00
11536;DHT22;5824;49.336;8.652;2022-09-03T09:47:15;18.20;23.70
11536;DHT22;5824;49.336;8.652;2022-09-03T09:52:13;18.10;9.40
11536;DHT22;5824;49.336;8.652;2022-09-03T09:54:41;18.30;25.90
11536;DHT22;5824;49.336;8.652;2022-09-03T09:57:16;18.60;25.70
11536;DHT22;5824;49.336;8.652;2022-09-03T09:59:43;19.00;18.50
11536;DHT22;5824;49.336;8.652;2022-09-03T10:02:16;19.70;19.00
11536;DHT22;5824;49.336;8.652;2022-09-03T10:04:44;20.00;5.30
11536;DHT22;5824;49.336;8.652;2022-09-03T10:07:28;20.40;1.00
11536;DHT22;5824;49.336;8.652;2022-09-03T10:10:15;20.40;1.00
11536;DHT22;5824;49.336;8.652;2022-09-03T10:12:45;20.10;1.00
11536;DHT22;5824;49.336;8.652;2022-09-03T10:16:14;19.80;1.00
11536;DHT22;5824;49.336;8.652;2022-09-03T10:18:42;19.80;1.00
11536;DHT22;5824;49.336;8.652;2022-09-03T10:21:23;20.20;1.00
11536;DHT22;5824;49.336;8.652;2022-09-03T10:24:09;21.30;1.00
11536;DHT22;5824;49.336;8.652;2022-09-03T10:26:41;21.90;1.00
11536;DHT22;5824;49.336;8.652;2022-09-03T10:29:09;22.30;1.00
11536;DHT22;5824;49.336;8.652;2022-09-03T10:35:29;23.50;1.00
11536;DHT22;5824;49.336;8.652;2022-09-03T10:38:08;25.40;1.00
11536;DHT22;5824;49.336;8.652;2022-09-03T10:40:41;27.10;1.00
11536;DHT22;5824;49.336;8.652;2022-09-03T10:46:10;28.80;1.00
11536;DHT22;5824;49.336;8.652;2022-09-03T10:51:32;28.90;1.00
11536;DHT22;5824;49.336;8.652;2022-09-03T10:54:31;27.80;1.00
11536;DHT22;5824;49.336;8.652;2022-09-03T11:00:30;27.90;1.00
11536;DHT22;5824;49.336;8.652;2022-09-03T11:08:12;33.30;1.00
11536;DHT22;5824;49.336;8.652;2022-09-03T11:10:44;34.00;1.00
11536;DHT22;5824;49.336;8.652;2022-09-03T11:13:23;32.50;1.00
11536;DHT22;5824;49.336;8.652;2022-09-03T11:15:59;31.60;1.00
11536;DHT22;5824;49.336;8.652;2022-09-03T11:18:30;31.80;1.00
11536;DHT22;5824;49.336;8.652;2022-09-03T11:21:03;31.60;1.00
11536;DHT22;5824;49.336;8.652;2022-09-03T11:23:32;32.10;1.00
11536;DHT22;5824;49.336;8.652;2022-09-03T11:26:04;33.60;1.00
11536;DHT22;5824;49.336;8.652;2022-09-03T11:28:52;34.70;1.00
11536;DHT22;5824;49.336;8.652;2022-09-03T11:31:44;36.00;1.00
11536;DHT22;5824;49.336;8.652;2022-09-03T11:34:15;35.50;1.00
11536;DHT22;5824;49.336;8.652;2022-09-03T11:36:51;34.10;1.00
11536;DHT22;5824;49.336;8.652;2022-09-03T11:39:17;32.60;1.00
11536;DHT22;5824;49.336;8.652;2022-09-03T11:41:56;32.90;1.00
11536;DHT22;5824;49.336;8.652;2022-09-03T11:44:22;35.00;1.00
11536;DHT22;5824;49.336;8.652;2022-09-03T11:46:58;36.30;1.00
11536;DHT22;5824;49.336;8.652;2022-09-03T11:49:29;35.50;1.00
11536;DHT22;5824;49.336;8.652;2022-09-03T11:52:03;33.70;1.00
11536;DHT22;5824;49.336;8.652;2022-09-03T11:54:32;33.10;1.00
11536;DHT22;5824;49.336;8.652;2022-09-03T11:57:13;33.30;1.00
11536;DHT22;5824;49.336;8.652;2022-09-03T11:59:41;33.20;1.00
11536;DHT22;5824;49.336;8.652;2022-09-03T12:02:29;32.80;1.00
11536;DHT22;5824;49.336;8.652;2022-09-03T12:10:33;33.30;1.00
11536;DHT22;5824;49.336;8.652;2022-09-03T12:16:21;36.70;1.00
11536;DHT22;5824;49.336;8.652;2022-09-03T12:18:48;37.30;1.00
11536;DHT22;5824;49.336;8.652;2022-09-03T12:21:18;36.60;1.00
11536;DHT22;5824;49.336;8.652;2022-09-03T12:23:51;36.60;1.00
11536;DHT22;5824;49.336;8.652;2022-09-03T12:26:23;37.40;1.00
11536;DHT22;5824;49.336;8.652;2022-09-03T12:28:54;37.80;1.00
11536;DHT22;5824;49.336;8.652;2022-09-03T12:31:29;36.30;1.00
11536;DHT22;5824;49.336;8.652;2022-09-03T12:33:57;34.30;1.00
11536;DHT22;5824;49.336;8.652;2022-09-03T12:36:24;33.10;1.00
11536;DHT22;5824;49.336;8.652;2022-09-03T12:38:51;32.20;1.00
11536;DHT22;5824;49.336;8.652;2022-09-03T12:41:28;31.70;1.00
11536;DHT22;5824;49.336;8.652;2022-09-03T12:43:56;32.80;1.00
11536;DHT22;5824;49.336;8.652;2022-09-03T12:46:24;34.00;1.00
11536;DHT22;5824;49.336;8.652;2022-09-03T12:48:58;35.10;1.00
11536;DHT22;5824;49.336;8.652;2022-09-03T12:51:33;36.70;1.00
11536;DHT22;5824;49.336;8.652;2022-09-03T12:54:02;38.50;1.00
11536;DHT22;5824;49.336;8.652;2022-09-03T12:56:30;39.30;1.00
11536;DHT22;5824;49.336;8.652;2022-09-03T12:59:03;39.80;1.00
11536;DHT22;5824;49.336;8.652;2022-09-03T13:01:34;40.80;1.00
11536;DHT22;5824;49.336;8.652;2022-09-03T13:04:11;41.30;1.00
11536;DHT22;5824;49.336;8.652;2022-09-03T13:06:49;40.60;1.00
11536;DHT22;5824;49.336;8.652;2022-09-03T13:09:23;37.70;1.00
11536;DHT22;5824;49.336;8.652;2022-09-03T13:11:49;35.40;1.00
11536;DHT22;5824;49.336;8.652;2022-09-03T13:14:16;35.30;1.00
11536;DHT22;5824;49.336;8.652;2022-09-03T13:19:22;32.90;1.00
11536;DHT22;5824;49.336;8.652;2022-09-03T13:22:04;32.10;1.00
11536;DHT22;5824;49.336;8.652;2022-09-03T13:29:59;35.50;1.00
11536;DHT22;5824;49.336;8.652;2022-09-03T13:35:58;35.90;1.00
11536;DHT22;5824;49.336;8.652;2022-09-03T13:38:32;34.20;1.00
11536;DHT22;5824;49.336;8.652;2022-09-03T13:44:06;31.80;1.00
11536;DHT22;5824;49.336;8.652;2022-09-03T13:46:55;31.60;1.00
11536;DHT22;5824;49.336;8.652;2022-09-03T13:49:48;31.60;1.00
11536;DHT22;5824;49.336;8.652;2022-09-03T13:56:00;30.20;1.00
11536;DHT22;5824;49.336;8.652;2022-09-03T14:03:31;35.60;1.00
11536;DHT22;5824;49.336;8.652;2022-09-03T14:12:04;36.90;1.00
11536;DHT22;5824;49.336;8.652;2022-09-03T14:14:43;36.10;1.00
11536;DHT22;5824;49.336;8.652;2022-09-03T14:17:34;34.20;1.00
11536;DHT22;5824;49.336;8.652;2022-09-03T14:20:29;32.10;1.00
11536;DHT22;5824;49.336;8.652;2022-09-03T14:23:08;31.40;1.00
11536;DHT22;5824;49.336;8.652;2022-09-03T14:25:54;33.40;1.00
11536;DHT22;5824;49.336;8.652;2022-09-03T14:28:38;34.90;1.00
11536;DHT22;5824;49.336;8.652;2022-09-03T14:34:17;31.00;1.00
11536;DHT22;5824;49.336;8.652;2022-09-03T14:37:04;29.50;1.00
11536;DHT22;5824;49.336;8.652;2022-09-03T14:39:36;28.20;1.00
11536;DHT22;5824;49.336;8.652;2022-09-03T14:44:47;27.30;1.00
11536;DHT22;5824;49.336;8.652;2022-09-03T14:47:46;28.20;1.00
11536;DHT22;5824;49.336;8.652;2022-09-03T14:55:49;31.40;1.00
11536;DHT22;5824;49.336;8.652;2022-09-03T14:58:29;28.90;1.00
11536;DHT22;5824;49.336;8.652;2022-09-03T15:01:02;27.90;1.00
11536;DHT22;5824;49.336;8.652;2022-09-03T15:03:48;27.10;1.00
11536;DHT22;5824;49.336;8.652;2022-09-03T15:06:24;26.60;1.00
11536;DHT22;5824;49.336;8.652;2022-09-03T15:11:59;25.90;1.00
11536;DHT22;5824;49.336;8.652;2022-09-03T15:14:41;25.70;1.00
11536;DHT22;5824;49.336;8.652;2022-09-03T15:22:52;25.10;1.00
11536;DHT22;5824;49.336;8.652;2022-09-03T15:25:46;24.90;1.00
11536;DHT22;5824;49.336;8.652;2022-09-03T15:28:30;24.90;1.00
11536;DHT22;5824;49.336;8.652;2022-09-03T15:31:15;24.80;1.00
11536;DHT22;5824;49.336;8.652;2022-09-03T15:33:58;24.70;1.00
11536;DHT22;5824;49.336;8.652;2022-09-03T15:36:48;24.60;1.00
11536;DHT22;5824;49.336;8.652;2022-09-03T15:39:22;24.50;1.00
11536;DHT22;5824;49.336;8.652;2022-09-03T15:41:58;24.50;1.00
11536;DHT22;5824;49.336;8.652;2022-09-03T15:44:34;24.40;1.00
11536;DHT22;5824;49.336;8.652;2022-09-03T15:47:11;24.30;1.00
11536;DHT22;5824;49.336;8.652;2022-09-03T15:49:46;24.30;1.00
11536;DHT22;5824;49.336;8.652;2022-09-03T15:52:28;24.10;1.00
11536;DHT22;5824;49.336;8.652;2022-09-03T15:57:39;24.00;1.00
11536;DHT22;5824;49.336;8.652;2022-09-03T16:00:11;23.90;1.00
11536;DHT22;5824;49.336;8.652;2022-09-03T16:02:41;23.60;1.00
11536;DHT22;5824;49.336;8.652;2022-09-03T16:05:17;23.40;1.00
11536;DHT22;5824;49.336;8.652;2022-09-03T16:08:03;23.00;1.00
11536;DHT22;5824;49.336;8.652;2022-09-03T16:10:47;22.50;1.00
11536;DHT22;5824;49.336;8.652;2022-09-03T16:13:38;22.00;1.00
11536;DHT22;5824;49.336;8.652;2022-09-03T16:16:50;21.60;1.00
11536;DHT22;5824;49.336;8.652;2022-09-03T16:19:22;21.40;1.00
11536;DHT22;5824;49.336;8.652;2022-09-03T16:24:36;21.30;1.00
11536;DHT22;5824;49.336;8.652;2022-09-03T16:27:41;21.40;1.00
11536;DHT22;5824;49.336;8.652;2022-09-03T16:30:20;21.60;1.00
11536;DHT22;5824;49.336;8.652;2022-09-03T16:36:02;22.00;1.00
11536;DHT22;5824;49.336;8.652;2022-09-03T16:38:44;22.10;1.00
11536;DHT22;5824;49.336;8.652;2022-09-03T16:44:23;22.10;1.00
11536;DHT22;5824;49.336;8.652;2022-09-03T16:50:12;22.30;1.00
11536;DHT22;5824;49.336;8.652;2022-09-03T16:55:37;22.40;1.00
11536;DHT22;5824;49.336;8.652;2022-09-03T16:58:25;22.40;1.00
11536;DHT22;5824;49.336;8.652;2022-09-03T17:01:09;22.40;1.00
11536;DHT22;5824;49.336;8.652;2022-09-03T17:07:03;22.50;1.00
11536;DHT22;5824;49.336;8.652;2022-09-03T17:09:53;22.50;1.00
11536;DHT22;5824;49.336;8.652;2022-09-03T17:18:01;22.60;1.00
11536;DHT22;5824;49.336;8.652;2022-09-03T17:20:40;22.60;1.00
11536;DHT22;5824;49.336;8.652;2022-09-03T17:26:10;22.90;1.00
11536;DHT22;5824;49.336;8.652;2022-09-03T17:37:16;23.00;1.00
11536;DHT22;5824;49.336;8.652;2022-09-03T17:40:00;22.90;1.00
11536;DHT22;5824;49.336;8.652;2022-09-03T17:42:53;22.80;1.00
11536;DHT22;5824;49.336;8.652;2022-09-03T17:45:43;22.70;1.00
11536;DHT22;5824;49.336;8.652;2022-09-03T17:51:04;22.40;1.00
11536;DHT22;5824;49.336;8.652;2022-09-03T17:53:45;22.20;1.00
11536;DHT22;5824;49.336;8.652;2022-09-03T17:56:50;22.00;1.00
11536;DHT22;5824;49.336;8.652;2022-09-03T17:59:31;21.90;1.00
11536;DHT22;5824;49.336;8.652;2022-09-03T18:02:36;21.80;1.00
11536;DHT22;5824;49.336;8.652;2022-09-03T18:07:51;21.60;1.00
11536;DHT22;5824;49.336;8.652;2022-09-03T18:10:29;21.50;1.00
11536;DHT22;5824;49.336;8.652;2022-09-03T18:13:17;21.40;1.00
11536;DHT22;5824;49.336;8.652;2022-09-03T18:15:51;21.30;1.00
11536;DHT22;5824;49.336;8.652;2022-09-03T18:18:29;21.20;1.00
11536;DHT22;5824;49.336;8.652;2022-09-03T18:21:01;21.20;1.00
11536;DHT22;5824;49.336;8.652;2022-09-03T18:24:20;21.10;1.00
11536;DHT22;5824;49.336;8.652;2022-09-03T18:30:02;21.00;1.00
11536;DHT22;5824;49.336;8.652;2022-09-03T18:32:46;21.10;1.00
11536;DHT22;5824;49.336;8.652;2022-09-03T18:35:31;20.90;1.00
11536;DHT22;5824;49.336;8.652;2022-09-03T18:38:33;20.70;1.00
11536;DHT22;5824;49.336;8.652;2022-09-03T18:45:10;20.30;2.60
11536;DHT22;5824;49.336;8.652;2022-09-03T18:48:04;20.20;4.00
11536;DHT22;5824;49.336;8.652;2022-09-03T18:51:07;20.20;4.90
11536;DHT22;5824;49.336;8.652;2022-09-03T18:54:08;20.20;3.50
11536;DHT22;5824;49.336;8.652;2022-09-03T18:56:57;20.20;5.00
11536;DHT22;5824;49.336;8.652;2022-09-03T19:00:07;20.20;4.10
11536;DHT22;5824;49.336;8.652;2022-09-03T19:12:25;19.80;12.40
11536;DHT22;5824;49.336;8.652;2022-09-03T19:21:09;19.80;13.70
11536;DHT22;5824;49.336;8.652;2022-09-03T19:24:00;19.80;12.80
11536;DHT22;5824;49.336;8.652;2022-09-03T19:30:05;19.70;12.30
11536;DHT22;5824;49.336;8.652;2022-09-03T19:33:44;19.70;12.30
11536;DHT22;5824;49.336;8.652;2022-09-03T19:36:18;19.70;12.30
11536;DHT22;5824;49.336;8.652;2022-09-03T19:42:43;19.60;14.00
11536;DHT22;5824;49.336;8.652;2022-09-03T19:45:55;19.60;13.70
11536;DHT22;5824;49.336;8.652;2022-09-03T19:54:50;19.40;18.70
11536;DHT22;5824;49.336;8.652;2022-09-03T19:57:36;19.40;17.50
11536;DHT22;5824;49.336;8.652;2022-09-03T20:00:21;19.40;16.90
11536;DHT22;5824;49.336;8.652;2022-09-03T20:03:05;19.30;18.00
11536;DHT22;5824;49.336;8.652;2022-09-03T20:05:50;19.30;16.90
11536;DHT22;5824;49.336;8.652;2022-09-03T20:08:35;19.30;17.10
11536;DHT22;5824;49.336;8.652;2022-09-03T20:11:22;19.30;17.50